sensor_id;sensor_type;location;lat;lon;timestamp;P1;durP1;ratioP1;P2;durP2;ratioP2
23490;SDS011;14683;50.038;8.078;2022-09-09T05:47:58;4.83;;;2.00;;
23490;SDS011;14683;50.038;8.078;2022-09-09T05:50:26;5.30;;;2.00;;
23490;SDS011;14683;50.038;8.078;2022-09-09T05:52:54;4.47;;;1.67;;
23490;SDS011;14683;50.038;8.078;2022-09-09T05:55:20;5.00;;;2.40;;
23490;SDS011;14683;50.038;8.078;2022-09-09T05:57:49;4.80;;;1.70;;
23490;SDS011;14683;50.038;8.078;2022-09-09T06:00:17;3.85;;;1.73;;
23490;SDS011;14683;50.038;8.078;2022-09-09T06:02:50;3.25;;;1.88;;
23490;SDS011;14683;50.038;8.078;2022-09-09T06:05:18;2.40;;;1.30;;
23490;SDS011;14683;50.038;8.078;2022-09-09T06:07:45;5.38;;;1.60;;
23490;SDS011;14683;50.038;8.078;2022-09-09T06:10:12;3.70;;;1.42;;
23490;SDS011;14683;50.038;8.078;2022-09-09T06:12:39;2.50;;;1.55;;
23490;SDS011;14683;50.038;8.078;2022-09-09T06:15:06;3.50;;;1.20;;
23490;SDS011;14683;50.038;8.078;2022-09-09T06:17:35;7.25;;;1.40;;
23490;SDS011;14683;50.038;8.078;2022-09-09T06:20:01;3.42;;;1.17;;
23490;SDS011;14683;50.038;8.078;2022-09-09T06:22:29;2.88;;;1.17;;
23490;SDS011;14683;50.038;8.078;2022-09-09T06:27:22;7.47;;;1.67;;
23490;SDS011;14683;50.038;8.078;2022-09-09T06:32:15;11.98;;;1.90;;
23490;SDS011;14683;50.038;8.078;2022-09-09T06:34:41;5.68;;;1.45;;
23490;SDS011;14683;50.038;8.078;2022-09-09T06:37:07;2.38;;;1.23;;
23490;SDS011;14683;50.038;8.078;2022-09-09T06:39:42;2.05;;;1.20;;
23490;SDS011;14683;50.038;8.078;2022-09-09T06:42:08;2.92;;;1.33;;
23490;SDS011;14683;50.038;8.078;2022-09-09T06:44:53;8.05;;;1.27;;
23490;SDS011;14683;50.038;8.078;2022-09-09T06:47:31;3.65;;;1.65;;
23490;SDS011;14683;50.038;8.078;2022-09-09T06:49:59;2.47;;;1.25;;
23490;SDS011;14683;50.038;8.078;2022-09-09T06:54:52;4.10;;;1.37;;
23490;SDS011;14683;50.038;8.078;2022-09-09T06:57:18;3.10;;;1.17;;
23490;SDS011;14683;50.038;8.078;2022-09-09T07:02:11;3.55;;;0.90;;
23490;SDS011;14683;50.038;8.078;2022-09-09T07:04:37;2.97;;;1.15;;
23490;SDS011;14683;50.038;8.078;2022-09-09T07:07:03;2.42;;;1.30;;
23490;SDS011;14683;50.038;8.078;2022-09-09T07:09:30;4.15;;;1.23;;
23490;SDS011;14683;50.038;8.078;2022-09-09T07:11:57;1.85;;;1.23;;
23490;SDS011;14683;50.038;8.078;2022-09-09T07:14:25;3.38;;;1.52;;
23490;SDS011;14683;50.038;8.078;2022-09-09T07:16:56;3.95;;;1.30;;
23490;SDS011;14683;50.038;8.078;2022-09-09T07:19:23;4.53;;;1.30;;
23490;SDS011;14683;50.038;8.078;2022-09-09T07:21:51;3.92;;;1.10;;
23490;SDS011;14683;50.038;8.078;2022-09-09T07:24:20;4.63;;;1.50;;
23490;SDS011;14683;50.038;8.078;2022-09-09T07:26:46;3.47;;;1.52;;
23490;SDS011;14683;50.038;8.078;2022-09-09T07:29:12;2.83;;;1.30;;
23490;SDS011;14683;50.038;8.078;2022-09-09T07:31:41;6.45;;;1.50;;
23490;SDS011;14683;50.038;8.078;2022-09-09T07:34:11;7.80;;;1.40;;
23490;SDS011;14683;50.038;8.078;2022-09-09T07:36:38;4.90;;;1.40;;
23490;SDS011;14683;50.038;8.078;2022-09-09T07:39:08;7.60;;;1.55;;
23490;SDS011;14683;50.038;8.078;2022-09-09T07:41:40;2.97;;;1.52;;
23490;SDS011;14683;50.038;8.078;2022-09-09T07:44:10;2.90;;;1.40;;
23490;SDS011;14683;50.038;8.078;2022-09-09T07:46:40;3.40;;;1.60;;
23490;SDS011;14683;50.038;8.078;2022-09-09T07:49:08;4.38;;;1.35;;
23490;SDS011;14683;50.038;8.078;2022-09-09T07:51:36;5.38;;;1.50;;
23490;SDS011;14683;50.038;8.078;2022-09-09T07:54:08;3.65;;;1.50;;
23490;SDS011;14683;50.038;8.078;2022-09-09T07:56:38;6.30;;;1.63;;
23490;SDS011;14683;50.038;8.078;2022-09-09T07:59:06;4.38;;;1.75;;
23490;SDS011;14683;50.038;8.078;2022-09-09T08:01:44;5.85;;;1.55;;
23490;SDS011;14683;50.038;8.078;2022-09-09T08:04:18;3.90;;;1.73;;
23490;SDS011;14683;50.038;8.078;2022-09-09T08:06:47;5.75;;;1.63;;
23490;SDS011;14683;50.038;8.078;2022-09-09T08:09:16;7.13;;;1.90;;
23490;SDS011;14683;50.038;8.078;2022-09-09T08:11:44;3.85;;;1.73;;
23490;SDS011;14683;50.038;8.078;2022-09-09T08:14:11;2.25;;;1.40;;
23490;SDS011;14683;50.038;8.078;2022-09-09T08:16:39;6.85;;;2.08;;
23490;SDS011;14683;50.038;8.078;2022-09-09T08:19:06;7.90;;;2.08;;
23490;SDS011;14683;50.038;8.078;2022-09-09T08:21:34;4.82;;;2.00;;
23490;SDS011;14683;50.038;8.078;2022-09-09T08:24:02;4.53;;;2.05;;
23490;SDS011;14683;50.038;8.078;2022-09-09T08:26:35;7.40;;;2.33;;
23490;SDS011;14683;50.038;8.078;2022-09-09T08:29:03;4.90;;;2.10;;
23490;SDS011;14683;50.038;8.078;2022-09-09T08:31:33;9.13;;;2.25;;
23490;SDS011;14683;50.038;8.078;2022-09-09T08:34:01;4.63;;;2.38;;
23490;SDS011;14683;50.038;8.078;2022-09-09T08:36:31;6.97;;;2.17;;
23490;SDS011;14683;50.038;8.078;2022-09-09T08:38:59;6.80;;;2.30;;
23490;SDS011;14683;50.038;8.078;2022-09-09T08:53:05;4.22;;;2.00;;
23490;SDS011;14683;50.038;8.078;2022-09-09T08:55:47;3.25;;;1.70;;
23490;SDS011;14683;50.038;8.078;2022-09-09T08:58:18;7.07;;;1.77;;
23490;SDS011;14683;50.038;8.078;2022-09-09T09:09:01;6.20;;;1.42;;
23490;SDS011;14683;50.038;8.078;2022-09-09T09:11:38;3.90;;;1.20;;
23490;SDS011;14683;50.038;8.078;2022-09-09T09:14:18;5.38;;;1.33;;
23490;SDS011;14683;50.038;8.078;2022-09-09T09:19:20;6.97;;;1.20;;
23490;SDS011;14683;50.038;8.078;2022-09-09T09:22:13;3.38;;;1.30;;
23490;SDS011;14683;50.038;8.078;2022-09-09T09:27:36;6.68;;;1.30;;
23490;SDS011;14683;50.038;8.078;2022-09-09T09:30:19;3.95;;;1.52;;
23490;SDS011;14683;50.038;8.078;2022-09-09T09:35:26;2.83;;;1.23;;
23490;SDS011;14683;50.038;8.078;2022-09-09T09:37:53;3.53;;;0.88;;
23490;SDS011;14683;50.038;8.078;2022-09-09T09:40:20;2.75;;;1.20;;
23490;SDS011;14683;50.038;8.078;2022-09-09T09:42:51;3.13;;;0.98;;
23490;SDS011;14683;50.038;8.078;2022-09-09T09:45:34;2.65;;;1.10;;
23490;SDS011;14683;50.038;8.078;2022-09-09T09:48:11;9.43;;;1.40;;
23490;SDS011;14683;50.038;8.078;2022-09-09T09:50:49;3.33;;;1.17;;
23490;SDS011;14683;50.038;8.078;2022-09-09T09:53:38;3.88;;;1.20;;
23490;SDS011;14683;50.038;8.078;2022-09-09T09:56:11;3.83;;;1.00;;
23490;SDS011;14683;50.038;8.078;2022-09-09T10:03:51;2.78;;;1.30;;
23490;SDS011;14683;50.038;8.078;2022-09-09T10:06:28;4.43;;;1.05;;
23490;SDS011;14683;50.038;8.078;2022-09-09T10:08:59;3.20;;;0.90;;
23490;SDS011;14683;50.038;8.078;2022-09-09T10:14:11;2.65;;;1.00;;
23490;SDS011;14683;50.038;8.078;2022-09-09T10:22:50;5.32;;;1.30;;
23490;SDS011;14683;50.038;8.078;2022-09-09T10:33:35;6.72;;;1.08;;
23490;SDS011;14683;50.038;8.078;2022-09-09T10:36:11;4.68;;;1.33;;
23490;SDS011;14683;50.038;8.078;2022-09-09T10:38:52;4.85;;;1.35;;
23490;SDS011;14683;50.038;8.078;2022-09-09T10:41:32;3.83;;;1.13;;
23490;SDS011;14683;50.038;8.078;2022-09-09T10:44:06;4.15;;;1.00;;
23490;SDS011;14683;50.038;8.078;2022-09-09T10:57:46;4.45;;;1.25;;
23490;SDS011;14683;50.038;8.078;2022-09-09T11:03:21;4.10;;;1.00;;
23490;SDS011;14683;50.038;8.078;2022-09-09T11:05:53;5.07;;;1.60;;
23490;SDS011;14683;50.038;8.078;2022-09-09T11:08:26;2.63;;;0.95;;
23490;SDS011;14683;50.038;8.078;2022-09-09T11:13:25;7.35;;;1.25;;
23490;SDS011;14683;50.038;8.078;2022-09-09T11:19:15;5.47;;;1.38;;
23490;SDS011;14683;50.038;8.078;2022-09-09T11:21:47;2.97;;;0.80;;
23490;SDS011;14683;50.038;8.078;2022-09-09T11:24:21;3.60;;;1.05;;
23490;SDS011;14683;50.038;8.078;2022-09-09T11:26:57;6.65;;;0.90;;
23490;SDS011;14683;50.038;8.078;2022-09-09T11:34:51;4.78;;;0.93;;
23490;SDS011;14683;50.038;8.078;2022-09-09T11:37:25;5.70;;;0.93;;
23490;SDS011;14683;50.038;8.078;2022-09-09T11:40:17;1.52;;;0.98;;
23490;SDS011;14683;50.038;8.078;2022-09-09T11:42:46;4.78;;;1.42;;
23490;SDS011;14683;50.038;8.078;2022-09-09T11:47:52;5.75;;;1.00;;
23490;SDS011;14683;50.038;8.078;2022-09-09T11:52:45;5.43;;;1.00;;
23490;SDS011;14683;50.038;8.078;2022-09-09T11:55:29;3.60;;;1.10;;
23490;SDS011;14683;50.038;8.078;2022-09-09T11:58:06;3.10;;;1.10;;
23490;SDS011;14683;50.038;8.078;2022-09-09T12:00:42;3.80;;;0.98;;
23490;SDS011;14683;50.038;8.078;2022-09-09T12:06:10;5.20;;;1.30;;
23490;SDS011;14683;50.038;8.078;2022-09-09T12:08:40;3.53;;;1.10;;
23490;SDS011;14683;50.038;8.078;2022-09-09T12:11:07;1.90;;;1.00;;
23490;SDS011;14683;50.038;8.078;2022-09-09T12:13:34;2.90;;;0.63;;
23490;SDS011;14683;50.038;8.078;2022-09-09T12:16:00;2.10;;;0.98;;
23490;SDS011;14683;50.038;8.078;2022-09-09T12:18:35;2.13;;;1.00;;
23490;SDS011;14683;50.038;8.078;2022-09-09T12:21:05;3.45;;;1.00;;
23490;SDS011;14683;50.038;8.078;2022-09-09T12:23:36;5.65;;;1.05;;
23490;SDS011;14683;50.038;8.078;2022-09-09T12:31:46;4.05;;;1.08;;
23490;SDS011;14683;50.038;8.078;2022-09-09T12:34:34;4.10;;;1.30;;
23490;SDS011;14683;50.038;8.078;2022-09-09T12:37:34;2.00;;;0.70;;
23490;SDS011;14683;50.038;8.078;2022-09-09T12:40:03;2.28;;;0.60;;
23490;SDS011;14683;50.038;8.078;2022-09-09T12:42:31;3.38;;;0.80;;
23490;SDS011;14683;50.038;8.078;2022-09-09T12:45:01;1.83;;;0.70;;
23490;SDS011;14683;50.038;8.078;2022-09-09T12:47:36;3.25;;;0.70;;
23490;SDS011;14683;50.038;8.078;2022-09-09T12:50:03;2.10;;;0.63;;
23490;SDS011;14683;50.038;8.078;2022-09-09T12:52:34;3.60;;;0.68;;
23490;SDS011;14683;50.038;8.078;2022-09-09T12:55:03;1.85;;;0.60;;
23490;SDS011;14683;50.038;8.078;2022-09-09T12:57:37;1.85;;;0.70;;
23490;SDS011;14683;50.038;8.078;2022-09-09T13:00:05;3.10;;;0.80;;
23490;SDS011;14683;50.038;8.078;2022-09-09T13:02:36;2.13;;;0.70;;
23490;SDS011;14683;50.038;8.078;2022-09-09T13:05:17;6.53;;;1.05;;
23490;SDS011;14683;50.038;8.078;2022-09-09T13:07:45;2.63;;;0.65;;
23490;SDS011;14683;50.038;8.078;2022-09-09T13:10:13;5.05;;;1.00;;
23490;SDS011;14683;50.038;8.078;2022-09-09T13:12:40;4.75;;;1.00;;
23490;SDS011;14683;50.038;8.078;2022-09-09T13:15:26;4.60;;;0.90;;
23490;SDS011;14683;50.038;8.078;2022-09-09T13:17:55;3.53;;;1.03;;
23490;SDS011;14683;50.038;8.078;2022-09-09T13:20:23;4.55;;;1.23;;
23490;SDS011;14683;50.038;8.078;2022-09-09T13:22:50;2.47;;;0.70;;
23490;SDS011;14683;50.038;8.078;2022-09-09T13:25:19;6.47;;;1.08;;
23490;SDS011;14683;50.038;8.078;2022-09-09T13:27:59;2.70;;;1.00;;
23490;SDS011;14683;50.038;8.078;2022-09-09T13:30:30;3.40;;;1.02;;
23490;SDS011;14683;50.038;8.078;2022-09-09T13:33:05;2.60;;;1.20;;
23490;SDS011;14683;50.038;8.078;2022-09-09T13:35:56;3.13;;;1.10;;
23490;SDS011;14683;50.038;8.078;2022-09-09T13:38:36;2.60;;;0.80;;
23490;SDS011;14683;50.038;8.078;2022-09-09T13:41:05;3.67;;;1.05;;
23490;SDS011;14683;50.038;8.078;2022-09-09T13:43:42;3.85;;;1.20;;
23490;SDS011;14683;50.038;8.078;2022-09-09T13:48:58;4.85;;;1.00;;
23490;SDS011;14683;50.038;8.078;2022-09-09T13:51:32;4.18;;;0.98;;
23490;SDS011;14683;50.038;8.078;2022-09-09T13:54:00;2.78;;;0.73;;
23490;SDS011;14683;50.038;8.078;2022-09-09T13:58:52;2.78;;;1.10;;
23490;SDS011;14683;50.038;8.078;2022-09-09T14:01:18;4.25;;;1.08;;
23490;SDS011;14683;50.038;8.078;2022-09-09T14:03:44;4.53;;;1.45;;
23490;SDS011;14683;50.038;8.078;2022-09-09T14:06:10;4.53;;;0.90;;
23490;SDS011;14683;50.038;8.078;2022-09-09T14:08:36;6.35;;;1.15;;
23490;SDS011;14683;50.038;8.078;2022-09-09T14:11:03;4.15;;;1.20;;
23490;SDS011;14683;50.038;8.078;2022-09-09T14:13:30;3.55;;;1.20;;
23490;SDS011;14683;50.038;8.078;2022-09-09T14:15:56;9.02;;;1.10;;
23490;SDS011;14683;50.038;8.078;2022-09-09T14:18:22;5.13;;;1.13;;
23490;SDS011;14683;50.038;8.078;2022-09-09T14:20:48;4.05;;;1.13;;
23490;SDS011;14683;50.038;8.078;2022-09-09T14:23:16;2.53;;;0.90;;
23490;SDS011;14683;50.038;8.078;2022-09-09T14:25:43;2.28;;;0.88;;
23490;SDS011;14683;50.038;8.078;2022-09-09T14:28:10;2.97;;;1.05;;
23490;SDS011;14683;50.038;8.078;2022-09-09T14:30:37;3.38;;;0.95;;
23490;SDS011;14683;50.038;8.078;2022-09-09T14:33:05;2.65;;;0.88;;
23490;SDS011;14683;50.038;8.078;2022-09-09T14:35:31;3.33;;;1.17;;
23490;SDS011;14683;50.038;8.078;2022-09-09T14:37:59;2.03;;;1.17;;
23490;SDS011;14683;50.038;8.078;2022-09-09T14:40:26;2.10;;;0.77;;
23490;SDS011;14683;50.038;8.078;2022-09-09T14:42:52;4.63;;;1.05;;
23490;SDS011;14683;50.038;8.078;2022-09-09T14:47:46;1.73;;;0.77;;
23490;SDS011;14683;50.038;8.078;2022-09-09T14:50:12;2.08;;;0.60;;
23490;SDS011;14683;50.038;8.078;2022-09-09T14:52:39;1.05;;;0.57;;
23490;SDS011;14683;50.038;8.078;2022-09-09T14:55:05;0.80;;;0.47;;
23490;SDS011;14683;50.038;8.078;2022-09-09T14:57:32;2.80;;;0.80;;
23490;SDS011;14683;50.038;8.078;2022-09-09T15:00:00;3.22;;;1.00;;
23490;SDS011;14683;50.038;8.078;2022-09-09T15:02:27;2.75;;;0.80;;
23490;SDS011;14683;50.038;8.078;2022-09-09T15:04:53;1.92;;;0.80;;
23490;SDS011;14683;50.038;8.078;2022-09-09T15:07:22;2.75;;;0.77;;
23490;SDS011;14683;50.038;8.078;2022-09-09T15:09:48;3.88;;;0.90;;
23490;SDS011;14683;50.038;8.078;2022-09-09T15:14:41;3.63;;;0.82;;
23490;SDS011;14683;50.038;8.078;2022-09-09T15:17:07;2.80;;;0.80;;
23490;SDS011;14683;50.038;8.078;2022-09-09T15:19:33;3.83;;;0.77;;
23490;SDS011;14683;50.038;8.078;2022-09-09T15:21:59;2.03;;;0.75;;
23490;SDS011;14683;50.038;8.078;2022-09-09T15:24:25;1.15;;;0.90;;
23490;SDS011;14683;50.038;8.078;2022-09-09T15:26:52;1.77;;;0.85;;
23490;SDS011;14683;50.038;8.078;2022-09-09T15:29:19;2.03;;;0.80;;
23490;SDS011;14683;50.038;8.078;2022-09-09T15:31:45;2.78;;;1.08;;
23490;SDS011;14683;50.038;8.078;2022-09-09T15:34:12;3.85;;;1.13;;
23490;SDS011;14683;50.038;8.078;2022-09-09T15:36:40;4.68;;;1.00;;
23490;SDS011;14683;50.038;8.078;2022-09-09T15:39:07;3.67;;;1.17;;
23490;SDS011;14683;50.038;8.078;2022-09-09T15:41:38;2.80;;;1.17;;
23490;SDS011;14683;50.038;8.078;2022-09-09T15:44:04;2.75;;;0.73;;
23490;SDS011;14683;50.038;8.078;2022-09-09T15:49:07;4.65;;;0.93;;
23490;SDS011;14683;50.038;8.078;2022-09-09T15:51:52;3.45;;;0.90;;
23490;SDS011;14683;50.038;8.078;2022-09-09T15:54:20;2.63;;;0.90;;
23490;SDS011;14683;50.038;8.078;2022-09-09T15:56:53;3.25;;;0.70;;
23490;SDS011;14683;50.038;8.078;2022-09-09T15:59:22;1.88;;;0.93;;
23490;SDS011;14683;50.038;8.078;2022-09-09T16:01:48;2.72;;;0.70;;
23490;SDS011;14683;50.038;8.078;2022-09-09T16:04:20;1.08;;;0.50;;
23490;SDS011;14683;50.038;8.078;2022-09-09T16:06:52;1.48;;;0.68;;
23490;SDS011;14683;50.038;8.078;2022-09-09T16:09:20;1.83;;;0.80;;
23490;SDS011;14683;50.038;8.078;2022-09-09T16:11:46;1.30;;;0.70;;
23490;SDS011;14683;50.038;8.078;2022-09-09T16:14:13;1.45;;;0.65;;
23490;SDS011;14683;50.038;8.078;2022-09-09T16:16:41;5.05;;;0.90;;
23490;SDS011;14683;50.038;8.078;2022-09-09T16:19:08;2.40;;;0.52;;
23490;SDS011;14683;50.038;8.078;2022-09-09T16:21:37;4.60;;;0.75;;
23490;SDS011;14683;50.038;8.078;2022-09-09T16:24:08;4.28;;;0.85;;
23490;SDS011;14683;50.038;8.078;2022-09-09T16:26:36;1.27;;;0.57;;
23490;SDS011;14683;50.038;8.078;2022-09-09T16:29:03;1.58;;;0.55;;
23490;SDS011;14683;50.038;8.078;2022-09-09T16:31:30;3.60;;;0.77;;
23490;SDS011;14683;50.038;8.078;2022-09-09T16:33:59;2.47;;;0.60;;
23490;SDS011;14683;50.038;8.078;2022-09-09T16:36:26;1.77;;;0.98;;
23490;SDS011;14683;50.038;8.078;2022-09-09T16:38:54;2.33;;;0.95;;
23490;SDS011;14683;50.038;8.078;2022-09-09T16:41:21;3.58;;;0.90;;
23490;SDS011;14683;50.038;8.078;2022-09-09T16:43:47;3.20;;;0.88;;
23490;SDS011;14683;50.038;8.078;2022-09-09T16:46:18;4.15;;;0.90;;
23490;SDS011;14683;50.038;8.078;2022-09-09T16:48:45;2.35;;;1.10;;
23490;SDS011;14683;50.038;8.078;2022-09-09T16:51:13;1.52;;;0.70;;
23490;SDS011;14683;50.038;8.078;2022-09-09T16:53:44;1.70;;;0.80;;
23490;SDS011;14683;50.038;8.078;2022-09-09T16:56:12;1.35;;;0.70;;
23490;SDS011;14683;50.038;8.078;2022-09-09T16:58:40;3.03;;;0.70;;
23490;SDS011;14683;50.038;8.078;2022-09-09T17:01:08;2.80;;;0.90;;
23490;SDS011;14683;50.038;8.078;2022-09-09T17:03:37;1.83;;;0.90;;
23490;SDS011;14683;50.038;8.078;2022-09-09T17:06:03;2.28;;;0.73;;
23490;SDS011;14683;50.038;8.078;2022-09-09T17:08:34;2.03;;;0.90;;
23490;SDS011;14683;50.038;8.078;2022-09-09T17:11:01;2.03;;;0.77;;
23490;SDS011;14683;50.038;8.078;2022-09-09T17:13:27;2.65;;;1.00;;
23490;SDS011;14683;50.038;8.078;2022-09-09T17:15:53;1.13;;;0.70;;
23490;SDS011;14683;50.038;8.078;2022-09-09T17:18:19;2.47;;;0.70;;
23490;SDS011;14683;50.038;8.078;2022-09-09T17:20:46;2.75;;;1.02;;
23490;SDS011;14683;50.038;8.078;2022-09-09T17:25:41;2.63;;;0.80;;
23490;SDS011;14683;50.038;8.078;2022-09-09T17:28:07;2.22;;;0.70;;
23490;SDS011;14683;50.038;8.078;2022-09-09T17:30:34;1.30;;;0.70;;
23490;SDS011;14683;50.038;8.078;2022-09-09T17:33:00;3.47;;;1.15;;
23490;SDS011;14683;50.038;8.078;2022-09-09T17:35:26;3.58;;;1.60;;
23490;SDS011;14683;50.038;8.078;2022-09-09T17:37:53;5.78;;;1.20;;
23490;SDS011;14683;50.038;8.078;2022-09-09T17:40:20;1.92;;;0.70;;
23490;SDS011;14683;50.038;8.078;2022-09-09T17:42:46;3.90;;;1.05;;
23490;SDS011;14683;50.038;8.078;2022-09-09T17:45:13;2.22;;;0.98;;
23490;SDS011;14683;50.038;8.078;2022-09-09T17:47:40;5.00;;;1.15;;
23490;SDS011;14683;50.038;8.078;2022-09-09T17:50:08;4.57;;;0.93;;
23490;SDS011;14683;50.038;8.078;2022-09-09T17:52:38;4.20;;;1.10;;
23490;SDS011;14683;50.038;8.078;2022-09-09T17:55:06;2.20;;;0.90;;
23490;SDS011;14683;50.038;8.078;2022-09-09T17:57:34;2.42;;;1.10;;
23490;SDS011;14683;50.038;8.078;2022-09-09T18:00:01;1.65;;;1.10;;
23490;SDS011;14683;50.038;8.078;2022-09-09T18:02:37;2.55;;;1.10;;
23490;SDS011;14683;50.038;8.078;2022-09-09T18:05:03;3.13;;;1.02;;
23490;SDS011;14683;50.038;8.078;2022-09-09T18:07:30;0.80;;;0.80;;
23490;SDS011;14683;50.038;8.078;2022-09-09T18:09:56;3.22;;;0.98;;
23490;SDS011;14683;50.038;8.078;2022-09-09T18:12:22;1.58;;;0.82;;
23490;SDS011;14683;50.038;8.078;2022-09-09T18:14:48;4.82;;;1.45;;
23490;SDS011;14683;50.038;8.078;2022-09-09T18:17:15;1.75;;;0.90;;
23490;SDS011;14683;50.038;8.078;2022-09-09T18:19:41;3.55;;;1.08;;
23490;SDS011;14683;50.038;8.078;2022-09-09T18:22:07;4.15;;;1.30;;
23490;SDS011;14683;50.038;8.078;2022-09-09T18:24:33;3.60;;;0.77;;
23490;SDS011;14683;50.038;8.078;2022-09-09T18:27:00;3.40;;;1.20;;
23490;SDS011;14683;50.038;8.078;2022-09-09T18:29:26;5.90;;;1.08;;
23490;SDS011;14683;50.038;8.078;2022-09-09T18:31:53;3.67;;;0.82;;
23490;SDS011;14683;50.038;8.078;2022-09-09T18:34:20;2.95;;;0.60;;
23490;SDS011;14683;50.038;8.078;2022-09-09T18:36:50;2.75;;;0.82;;
23490;SDS011;14683;50.038;8.078;2022-09-09T18:39:19;1.48;;;0.80;;
23490;SDS011;14683;50.038;8.078;2022-09-09T18:41:46;1.67;;;0.93;;
23490;SDS011;14683;50.038;8.078;2022-09-09T18:44:15;3.78;;;1.00;;
23490;SDS011;14683;50.038;8.078;2022-09-09T18:46:42;1.65;;;0.95;;
23490;SDS011;14683;50.038;8.078;2022-09-09T18:49:09;3.45;;;1.10;;
23490;SDS011;14683;50.038;8.078;2022-09-09T18:51:36;1.23;;;0.60;;
23490;SDS011;14683;50.038;8.078;2022-09-09T18:54:06;4.13;;;0.85;;
23490;SDS011;14683;50.038;8.078;2022-09-09T18:56:35;0.75;;;0.50;;
23490;SDS011;14683;50.038;8.078;2022-09-09T19:01:29;2.53;;;0.70;;
23490;SDS011;14683;50.038;8.078;2022-09-09T19:06:25;4.13;;;0.45;;
23490;SDS011;14683;50.038;8.078;2022-09-09T19:08:52;0.98;;;0.55;;
23490;SDS011;14683;50.038;8.078;2022-09-09T19:11:20;3.35;;;0.80;;
23490;SDS011;14683;50.038;8.078;2022-09-09T19:13:49;2.05;;;0.80;;
23490;SDS011;14683;50.038;8.078;2022-09-09T19:16:20;2.97;;;0.80;;
23490;SDS011;14683;50.038;8.078;2022-09-09T19:18:47;1.70;;;1.13;;
23490;SDS011;14683;50.038;8.078;2022-09-09T19:21:14;1.75;;;0.75;;
23490;SDS011;14683;50.038;8.078;2022-09-09T19:23:48;2.88;;;0.55;;
23490;SDS011;14683;50.038;8.078;2022-09-09T19:26:20;1.30;;;0.70;;
23490;SDS011;14683;50.038;8.078;2022-09-09T19:28:47;2.00;;;0.60;;
23490;SDS011;14683;50.038;8.078;2022-09-09T19:31:15;4.18;;;1.15;;
23490;SDS011;14683;50.038;8.078;2022-09-09T19:33:43;1.85;;;0.80;;
23490;SDS011;14683;50.038;8.078;2022-09-09T19:36:10;1.08;;;0.63;;
23490;SDS011;14683;50.038;8.078;2022-09-09T19:38:38;1.52;;;0.82;;
23490;SDS011;14683;50.038;8.078;2022-09-09T19:41:07;2.95;;;0.80;;
